createdAt,value
2022-12-16T00:01:38.923Z,66552.31
2022-12-16T00:04:06.207Z,66573.47
2022-12-16T00:06:35.351Z,66564.41
2022-12-16T00:09:02.933Z,66567.53
2022-12-16T00:11:32.122Z,66574.81
2022-12-16T00:13:59.565Z,66571.66
2022-12-16T00:16:27.205Z,66570.88
2022-12-16T00:18:54.454Z,66592.91
2022-12-16T00:21:22.007Z,66583.75
2022-12-16T00:23:49.296Z,66574.81
2022-12-16T00:26:16.448Z,66547.28
2022-12-16T00:28:44.015Z,66541.28
2022-12-16T00:31:11.723Z,66530.88
2022-12-16T00:33:39.045Z,66535.13
2022-12-16T00:36:06.811Z,66533.34
2022-12-16T00:38:33.881Z,66539.59
2022-12-16T00:41:01.596Z,66543.28
2022-12-16T00:43:29.141Z,66535.56
2022-12-16T00:45:56.627Z,66537.59
2022-12-16T00:48:24.033Z,66534.59
2022-12-16T00:50:55.014Z,66535.69
2022-12-16T00:53:24.612Z,66495.50
2022-12-16T00:56:01.195Z,66538.50
2022-12-16T00:58:28.566Z,66537.94
2022-12-16T01:00:55.816Z,66537.94
2022-12-16T01:03:23.244Z,66544.44
2022-12-16T01:05:50.653Z,66546.28
2022-12-16T01:08:18.154Z,66554.47
2022-12-16T01:10:56.686Z,66544.63
2022-12-16T01:13:25.122Z,66540.38
2022-12-16T01:15:52.762Z,66545.94
2022-12-16T01:18:20.251Z,66539.81
2022-12-16T01:20:47.448Z,66540.72
2022-12-16T01:23:14.670Z,66541.28
2022-12-16T01:25:41.868Z,66538.16
2022-12-16T01:28:09.361Z,66538.16
2022-12-16T01:30:36.546Z,66537.59
2022-12-16T01:33:04.103Z,66541.28
2022-12-16T01:35:59.775Z,66541.13
2022-12-16T01:38:18.421Z,66546.50
2022-12-16T01:40:45.830Z,66547.41
2022-12-16T01:43:14.338Z,66560.84
2022-12-16T01:45:41.551Z,66561.03
2022-12-16T01:48:29.629Z,66559.03
2022-12-16T01:51:04.882Z,66564.75
2022-12-16T01:53:32.976Z,66572.00
2022-12-16T01:56:01.947Z,66574.56
2022-12-16T01:58:33.776Z,66575.34
2022-12-16T02:01:03.775Z,66565.06
2022-12-16T02:03:36.030Z,66552.22
2022-12-16T02:06:06.686Z,66524.75
2022-12-16T02:08:34.303Z,66518.25
2022-12-16T02:11:04.530Z,66513.91
2022-12-16T02:13:40.595Z,66509.44
2022-12-16T02:16:15.256Z,66498.25
2022-12-16T02:18:44.106Z,66491.34
2022-12-16T02:21:30.334Z,66491.22
2022-12-16T02:24:13.726Z,66503.50
2022-12-16T02:26:44.046Z,66513.66
2022-12-16T02:29:49.193Z,66528.09
2022-12-16T02:32:35.863Z,66542.63
2022-12-16T02:35:21.416Z,66534.44
2022-12-16T02:37:58.953Z,66529.53
2022-12-16T02:40:41.443Z,66528.44
2022-12-16T02:43:18.157Z,66525.28
2022-12-16T02:45:46.928Z,66528.75
2022-12-16T02:48:14.303Z,66524.75
2022-12-16T02:50:47.108Z,66534.78
2022-12-16T02:53:14.382Z,66547.22
2022-12-16T02:55:55.054Z,66547.06
2022-12-16T02:58:37.514Z,66559.38
2022-12-16T03:01:10.901Z,66559.16
2022-12-16T03:03:48.457Z,66552.44
2022-12-16T03:06:18.709Z,66561.94
2022-12-16T03:08:51.748Z,66579.50
2022-12-16T03:11:18.967Z,66576.47
2022-12-16T03:13:51.966Z,66562.72
2022-12-16T03:16:24.321Z,66570.53
2022-12-16T03:18:56.858Z,66568.09
2022-12-16T03:21:29.421Z,66562.84
2022-12-16T03:24:07.782Z,66565.50
2022-12-16T03:26:44.236Z,66549.84
2022-12-16T03:29:21.986Z,66535.38
2022-12-16T03:31:55.607Z,66546.84
2022-12-16T03:34:34.627Z,66540.16
2022-12-16T03:37:08.169Z,66551.09
2022-12-16T03:39:43.849Z,66548.88
2022-12-16T03:42:14.550Z,66546.09
2022-12-16T03:44:43.838Z,66542.41
2022-12-16T03:47:11.256Z,66535.69
2022-12-16T03:49:39.128Z,66530.88
2022-12-16T03:52:07.655Z,66524.19
2022-12-16T03:54:34.906Z,66514.25
2022-12-16T03:57:02.329Z,66509.09
2022-12-16T03:59:29.590Z,66518.81
2022-12-16T04:01:56.905Z,66517.59
2022-12-16T04:04:24.171Z,66524.19
2022-12-16T04:07:11.311Z,66518.94
2022-12-16T04:09:38.655Z,66513.34
2022-12-16T04:12:24.867Z,66520.94
2022-12-16T04:15:10.590Z,66512.56
2022-12-16T04:17:57.034Z,66525.63
2022-12-16T04:20:49.495Z,66531.66
2022-12-16T04:23:38.487Z,66535.56
2022-12-16T04:26:06.286Z,66536.25
2022-12-16T04:28:33.336Z,66527.19
2022-12-16T04:31:00.490Z,66542.75
2022-12-16T04:33:46.748Z,66539.03
2022-12-16T04:36:32.729Z,66545.41
2022-12-16T04:39:18.845Z,66543.19
2022-12-16T04:42:04.583Z,66535.78
2022-12-16T04:44:50.354Z,66550.41
2022-12-16T04:47:35.936Z,66550.00
2022-12-16T04:50:21.915Z,66544.63
2022-12-16T04:53:10.957Z,66552.44
2022-12-16T04:56:03.620Z,66559.16
2022-12-16T04:58:50.180Z,66553.56
2022-12-16T05:01:37.065Z,66553.00
2022-12-16T05:04:25.070Z,66545.59
2022-12-16T05:07:10.501Z,66547.28
2022-12-16T05:09:56.315Z,66530.88
2022-12-16T05:12:46.408Z,66533.09
2022-12-16T05:15:32.587Z,66536.25
2022-12-16T05:18:25.575Z,66534.78
2022-12-16T05:21:11.650Z,66531.78
2022-12-16T05:23:57.175Z,66529.53
2022-12-16T05:26:42.859Z,66523.06
2022-12-16T05:29:28.941Z,66520.03
2022-12-16T05:32:14.493Z,66470.34
2022-12-16T05:35:00.330Z,66519.69
2022-12-16T05:37:45.871Z,66512.78
2022-12-16T05:40:31.883Z,66510.78
2022-12-16T05:43:17.472Z,66513.34
2022-12-16T05:46:03.445Z,66506.28
2022-12-16T05:48:49.205Z,66472.59
2022-12-16T05:51:35.007Z,66523.41
2022-12-16T05:54:20.705Z,66515.78
2022-12-16T05:57:06.653Z,66523.06
2022-12-16T05:59:52.469Z,66523.41
2022-12-16T06:02:38.236Z,66527.88
2022-12-16T06:05:24.706Z,66535.69
2022-12-16T06:08:11.786Z,66538.25
2022-12-16T06:10:57.644Z,66532.00
2022-12-16T06:13:43.397Z,66537.94
2022-12-16T06:16:28.999Z,66543.84
2022-12-16T06:19:14.780Z,66544.28
2022-12-16T06:22:00.301Z,66551.66
2022-12-16T06:24:46.133Z,66543.72
2022-12-16T06:27:31.645Z,66547.97
2022-12-16T06:30:17.168Z,66538.69
2022-12-16T06:33:03.160Z,66538.16
2022-12-16T06:35:48.675Z,66532.34
2022-12-16T06:38:34.532Z,66542.41
2022-12-16T06:41:20.716Z,66548.88
2022-12-16T06:44:06.268Z,66542.06
2022-12-16T06:46:51.842Z,66556.13
2022-12-16T06:49:37.617Z,66565.50
2022-12-16T06:52:23.467Z,66575.69
2022-12-16T06:55:09.466Z,66575.34
2022-12-16T06:58:11.943Z,66571.66
2022-12-16T07:00:57.549Z,66575.59
2022-12-16T07:03:43.507Z,66581.50
2022-12-16T07:06:29.443Z,66586.34
2022-12-16T07:09:15.486Z,66582.97
2022-12-16T07:12:00.854Z,66527.88
2022-12-16T07:14:46.632Z,66568.31
2022-12-16T07:17:32.266Z,66587.66
2022-12-16T07:20:17.910Z,66584.31
2022-12-16T07:23:12.085Z,66578.72
2022-12-16T07:26:01.591Z,66583.19
2022-12-16T07:28:47.217Z,66592.13
2022-12-16T07:31:32.992Z,66586.97
2022-12-16T07:34:19.250Z,66574.13
2022-12-16T07:37:04.887Z,66582.63
2022-12-16T07:39:54.840Z,66585.41
2022-12-16T07:42:42.458Z,66601.63
2022-12-16T07:45:29.380Z,66624.78
2022-12-16T07:48:15.854Z,66628.69
2022-12-16T07:51:01.928Z,66627.03
2022-12-16T07:53:47.729Z,66632.63
2022-12-16T07:56:33.529Z,66636.88
2022-12-16T07:59:19.461Z,66634.50
2022-12-16T08:02:05.853Z,66639.31
2022-12-16T08:04:51.683Z,66639.66
2022-12-16T08:07:37.277Z,66635.63
2022-12-16T08:10:23.854Z,66643.25
2022-12-16T08:13:09.367Z,66642.69
2022-12-16T08:15:54.915Z,66660.94
2022-12-16T08:18:41.869Z,66678.81
2022-12-16T08:21:27.686Z,66671.22
2022-12-16T08:24:13.503Z,66667.31
2022-12-16T08:26:59.117Z,66666.72
2022-12-16T08:30:04.727Z,66664.28
2022-12-16T08:32:55.711Z,66679.41
2022-12-16T08:35:44.233Z,66677.91
2022-12-16T08:38:30.237Z,66677.16
2022-12-16T08:41:16.308Z,66668.53
2022-12-16T08:44:02.333Z,66652.97
2022-12-16T08:46:47.741Z,66641.91
2022-12-16T08:49:33.620Z,66636.31
2022-12-16T08:52:19.573Z,66627.03
2022-12-16T08:55:05.296Z,66609.47
2022-12-16T08:57:50.980Z,66605.75
2022-12-16T09:00:36.717Z,66613.59
2022-12-16T09:03:22.873Z,66618.41
2022-12-16T09:06:08.807Z,66628.69
2022-12-16T09:08:54.384Z,66632.06
2022-12-16T09:11:41.553Z,66653.44
2022-12-16T09:14:27.185Z,66646.38
2022-12-16T09:17:12.914Z,66633.72
2022-12-16T09:20:00.157Z,66649.53
2022-12-16T09:22:45.730Z,66673.22
2022-12-16T09:25:31.253Z,66715.53
2022-12-16T09:28:16.944Z,66730.53
2022-12-16T09:31:19.351Z,66727.41
2022-12-16T09:34:05.443Z,66750.69
2022-12-16T09:36:51.551Z,66763.00
2022-12-16T09:39:38.191Z,66804.44
2022-12-16T09:42:40.347Z,66821.25
2022-12-16T09:46:16.971Z,66836.94
2022-12-16T09:49:02.743Z,66808.03
2022-12-16T09:51:48.706Z,66793.38
2022-12-16T09:54:38.500Z,66777.56
2022-12-16T09:57:26.493Z,66786.88
2022-12-16T10:00:17.749Z,66814.66
2022-12-16T10:03:08.691Z,66823.72
2022-12-16T10:06:11.016Z,66828.53
2022-12-16T10:09:05.485Z,66823.91
2022-12-16T10:12:20.059Z,66835.03
2022-12-16T10:15:21.522Z,66822.94
2022-12-16T10:18:07.287Z,66815.66
2022-12-16T10:21:05.532Z,66803.88
2022-12-16T10:24:15.585Z,66781.47
2022-12-16T10:27:30.671Z,66778.13
2022-12-16T10:30:16.766Z,66755.53
2022-12-16T10:33:06.455Z,66764.47
2022-12-16T10:36:01.970Z,66783.16
2022-12-16T10:38:53.603Z,66792.47
2022-12-16T10:41:44.269Z,66797.19
2022-12-16T10:44:41.888Z,66811.53
2022-12-16T10:47:29.898Z,66818.03
2022-12-16T10:50:17.312Z,66794.38
2022-12-16T10:53:08.532Z,66757.63
2022-12-16T10:56:11.116Z,66761.69
2022-12-16T10:59:05.951Z,66751.81
2022-12-16T11:01:52.173Z,66769.50
2022-12-16T11:04:48.649Z,66755.94
2022-12-16T11:07:57.535Z,66757.41
2022-12-16T11:10:46.283Z,66757.19
2022-12-16T11:14:04.330Z,66757.53
2022-12-16T11:16:50.174Z,66762.78
2022-12-16T11:19:48.631Z,66770.63
2022-12-16T11:22:40.691Z,66751.25
2022-12-16T11:25:40.306Z,66739.47
2022-12-16T11:28:36.727Z,66737.94
2022-12-16T11:31:26.927Z,66721.03
2022-12-16T11:34:14.474Z,66718.00
2022-12-16T11:37:02.161Z,66726.75
2022-12-16T11:39:50.793Z,66728.06
2022-12-16T11:42:50.754Z,66715.63
2022-12-16T11:45:39.877Z,66726.63
2022-12-16T11:48:36.031Z,66733.13
2022-12-16T11:51:23.746Z,66748.25
2022-12-16T11:54:18.425Z,66725.72
2022-12-16T11:57:04.954Z,66709.81
2022-12-16T11:59:59.124Z,66712.97
2022-12-16T12:03:22.704Z,66670.19
2022-12-16T12:06:36.797Z,66705.69
2022-12-16T12:09:31.664Z,66690.78
2022-12-16T12:12:41.900Z,66648.63
2022-12-16T12:15:34.856Z,66629.03
2022-12-16T12:18:38.884Z,66600.50
2022-12-16T12:21:41.116Z,66589.91
2022-12-16T12:24:38.859Z,66592.47
2022-12-16T12:27:35.525Z,66577.59
2022-12-16T12:30:32.501Z,66537.69
2022-12-16T12:33:46.882Z,66559.91
2022-12-16T12:36:55.731Z,66550.00
2022-12-16T12:39:56.653Z,66541.84
2022-12-16T12:43:04.381Z,66525.28
2022-12-16T12:46:34.979Z,66520.59
2022-12-16T12:49:27.961Z,66462.53
2022-12-16T12:52:45.137Z,66508.31
2022-12-16T12:55:36.869Z,66509.44
2022-12-16T12:58:23.591Z,66516.47
2022-12-16T13:01:14.875Z,66516.47
2022-12-16T13:04:23.749Z,66516.13
2022-12-16T13:07:10.796Z,66520.59
2022-12-16T13:09:57.899Z,66527.88
2022-12-16T13:12:52.447Z,66533.44
2022-12-16T13:15:40.161Z,66537.16
2022-12-16T13:18:26.091Z,66531.22
2022-12-16T13:21:17.872Z,66515.78
2022-12-16T13:24:04.598Z,66519.50
2022-12-16T13:26:52.928Z,66517.59
2022-12-16T13:29:47.853Z,66516.69
2022-12-16T13:32:40.661Z,66512.78
2022-12-16T13:35:29.352Z,66508.31
2022-12-16T13:38:17.964Z,66504.41
2022-12-16T13:41:14.946Z,66490.22
2022-12-16T13:44:14.095Z,66478.94
2022-12-16T13:47:06.839Z,66473.69
2022-12-16T13:49:55.501Z,66468.09
2022-12-16T13:53:10.365Z,66417.88
2022-12-16T13:56:15.307Z,66443.84
2022-12-16T13:59:20.576Z,66433.47
2022-12-16T14:02:06.354Z,66381.59
2022-12-16T14:04:55.810Z,66422.06
2022-12-16T14:07:44.223Z,66411.13
2022-12-16T14:10:47.136Z,66364.88
2022-12-16T14:13:41.937Z,66403.88
2022-12-16T14:16:33.624Z,66397.94
2022-12-16T14:19:22.323Z,66390.47
2022-12-16T14:22:13.902Z,66384.00
2022-12-16T14:24:59.681Z,66387.91
2022-12-16T14:27:45.835Z,66384.91
2022-12-16T14:30:44.087Z,66335.88
2022-12-16T14:33:45.164Z,66379.31
2022-12-16T14:36:45.430Z,66386.03
2022-12-16T14:39:46.419Z,66379.31
2022-12-16T14:42:43.374Z,66377.31
2022-12-16T14:45:51.204Z,66372.28
2022-12-16T14:48:43.275Z,66379.09
2022-12-16T14:51:42.895Z,66327.84
2022-12-16T14:54:39.617Z,66373.50
2022-12-16T14:57:32.479Z,66374.06
2022-12-16T15:00:27.590Z,66369.06
2022-12-16T15:03:17.892Z,66362.00
2022-12-16T15:06:04.697Z,66355.31
2022-12-16T15:08:54.493Z,66305.75
2022-12-16T15:11:43.977Z,66348.06
2022-12-16T15:14:35.880Z,66344.38
2022-12-16T15:17:22.319Z,66334.13
2022-12-16T15:20:11.732Z,66331.88
2022-12-16T15:23:04.552Z,66284.56
2022-12-16T15:25:50.820Z,66324.06
2022-12-16T15:28:54.864Z,66322.97
2022-12-16T15:32:03.208Z,66319.06
2022-12-16T15:35:09.971Z,66322.97
2022-12-16T15:38:04.217Z,66276.75
2022-12-16T15:40:52.672Z,66326.53
2022-12-16T15:43:53.626Z,66321.50
2022-12-16T15:46:48.741Z,66326.53
2022-12-16T15:49:48.282Z,66328.75
2022-12-16T15:52:49.413Z,66330.44
2022-12-16T15:55:49.396Z,66335.22
2022-12-16T15:58:48.720Z,66295.72
2022-12-16T16:01:37.948Z,66340.81
2022-12-16T16:04:54.767Z,66344.50
2022-12-16T16:07:41.274Z,66338.25
2022-12-16T16:10:36.112Z,66337.69
2022-12-16T16:13:22.258Z,66347.84
2022-12-16T16:16:08.585Z,66299.06
2022-12-16T16:18:54.666Z,66343.28
2022-12-16T16:21:41.403Z,66347.53
2022-12-16T16:24:27.522Z,66349.75
2022-12-16T16:27:14.843Z,66357.56
2022-12-16T16:30:01.073Z,66355.53
2022-12-16T16:32:47.331Z,66351.63
2022-12-16T16:35:34.006Z,66310.00
2022-12-16T16:38:20.019Z,66348.63
2022-12-16T16:41:06.566Z,66352.31
2022-12-16T16:43:52.177Z,66350.84
2022-12-16T16:46:57.429Z,66351.97
2022-12-16T16:49:49.489Z,66350.28
2022-12-16T16:52:38.266Z,66353.09
2022-12-16T16:55:25.920Z,66353.09
2022-12-16T16:58:11.884Z,66352.53
2022-12-16T17:00:57.915Z,66355.31
2022-12-16T17:03:44.078Z,66353.88
2022-12-16T17:06:30.188Z,66315.78
2022-12-16T17:09:16.129Z,66360.91
2022-12-16T17:12:02.307Z,66365.38
2022-12-16T17:14:48.177Z,66368.16
2022-12-16T17:17:34.756Z,66366.16
2022-12-16T17:20:20.380Z,66374.63
2022-12-16T17:23:06.602Z,66376.53
2022-12-16T17:25:52.515Z,66375.06
2022-12-16T17:28:38.445Z,66381.00
2022-12-16T17:31:24.042Z,66379.31
2022-12-16T17:34:10.472Z,66387.13
2022-12-16T17:36:56.176Z,66388.81
2022-12-16T17:39:42.583Z,66384.00
2022-12-16T17:42:28.409Z,66384.56
2022-12-16T17:45:14.125Z,66393.81
2022-12-16T17:47:59.821Z,66391.06
2022-12-16T17:50:45.610Z,66396.41
2022-12-16T17:53:31.968Z,66395.16
2022-12-16T17:56:22.901Z,66351.28
2022-12-16T17:59:11.032Z,66399.41
2022-12-16T18:01:56.924Z,66398.88
2022-12-16T18:04:42.757Z,66402.78
2022-12-16T18:07:29.029Z,66404.44
2022-12-16T18:10:15.011Z,66406.09
2022-12-16T18:13:01.049Z,66409.25
2022-12-16T18:15:46.600Z,66407.22
2022-12-16T18:18:32.461Z,66407.22
2022-12-16T18:21:28.795Z,66407.78
2022-12-16T18:24:15.092Z,66405.78
2022-12-16T18:27:01.473Z,66416.16
2022-12-16T18:29:47.968Z,66409.47
2022-12-16T18:32:35.404Z,66412.25
2022-12-16T18:35:22.219Z,66409.13
2022-12-16T18:38:12.140Z,66409.69
2022-12-16T18:41:00.673Z,66415.94
2022-12-16T18:43:46.733Z,66415.03
2022-12-16T18:46:32.611Z,66412.25
2022-12-16T18:49:22.905Z,66410.25
2022-12-16T18:52:09.359Z,66412.81
2022-12-16T18:54:55.008Z,66417.28
2022-12-16T18:57:40.696Z,66420.06
2022-12-16T19:00:27.167Z,66415.81
2022-12-16T19:03:12.953Z,66420.06
2022-12-16T19:05:58.943Z,66423.97
2022-12-16T19:08:45.342Z,66417.50
2022-12-16T19:11:31.064Z,66422.31
2022-12-16T19:14:17.260Z,66427.66
2022-12-16T19:17:04.006Z,66423.09
2022-12-16T19:19:50.160Z,66423.63
2022-12-16T19:22:36.391Z,66425.66
2022-12-16T19:25:22.317Z,66422.19
2022-12-16T19:28:07.956Z,66421.63
2022-12-16T19:30:53.503Z,66426.22
2022-12-16T19:33:42.607Z,66429.91
2022-12-16T19:36:28.752Z,66430.13
2022-12-16T19:39:14.995Z,66431.56
2022-12-16T19:42:01.246Z,66430.66
2022-12-16T19:45:06.757Z,66432.34
2022-12-16T19:47:52.839Z,66387.75
2022-12-16T19:50:39.373Z,66435.16
2022-12-16T19:53:25.037Z,66388.88
2022-12-16T19:56:19.036Z,66438.47
2022-12-16T19:59:05.312Z,66434.56
2022-12-16T20:01:51.413Z,66435.16
2022-12-16T20:04:37.645Z,66432.00
2022-12-16T20:07:23.628Z,66432.34
2022-12-16T20:10:09.502Z,66436.25
2022-12-16T20:16:01.039Z,66438.16
2022-12-16T20:18:46.922Z,66394.78
2022-12-16T20:21:32.557Z,66438.47
2022-12-16T20:24:38.608Z,66442.19
2022-12-16T20:27:25.006Z,66443.50
2022-12-16T20:30:10.967Z,66446.31
2022-12-16T20:32:57.103Z,66448.88
2022-12-16T20:35:43.122Z,66449.09
2022-12-16T20:38:29.154Z,66441.50
2022-12-16T20:41:19.290Z,66444.06
2022-12-16T20:44:06.610Z,66435.81
2022-12-16T20:46:52.352Z,66451.13
2022-12-16T20:49:41.988Z,66444.31
2022-12-16T20:52:28.203Z,66454.47
2022-12-16T20:55:13.849Z,66444.31
2022-12-16T20:57:59.795Z,66401.13
2022-12-16T21:00:46.189Z,66453.34
2022-12-16T21:03:31.911Z,66446.19
2022-12-16T21:06:17.518Z,66448.22
2022-12-16T21:09:03.217Z,66453.78
2022-12-16T21:11:49.437Z,66449.88
2022-12-16T21:14:28.697Z,66438.16
2022-12-16T21:14:36.107Z,66455.78
2022-12-16T21:17:22.190Z,66452.66
2022-12-16T21:20:08.330Z,66457.25
2022-12-16T21:22:55.303Z,66455.78
2022-12-16T21:25:44.912Z,66448.22
2022-12-16T21:28:38.796Z,66453.00
2022-12-16T21:31:24.904Z,66452.66
2022-12-16T21:34:11.531Z,66456.22
2022-12-16T21:36:57.388Z,66461.72
2022-12-16T21:39:43.343Z,66461.16
2022-12-16T21:42:36.776Z,66451.22
2022-12-16T21:45:25.399Z,66456.38
2022-12-16T21:48:12.718Z,66457.81
2022-12-16T21:50:59.333Z,66447.53
2022-12-16T21:53:45.025Z,66459.50
2022-12-16T21:56:31.264Z,66461.06
2022-12-16T21:59:17.213Z,66462.84
2022-12-16T22:02:05.288Z,66456.38
2022-12-16T22:04:51.096Z,66418.22
2022-12-16T22:07:38.106Z,66458.81
2022-12-16T22:10:24.352Z,66460.03
2022-12-16T22:13:10.398Z,66452.13
2022-12-16T22:19:02.398Z,66458.03
2022-12-16T22:21:48.438Z,66461.94
2022-12-16T22:24:35.404Z,66455.47
2022-12-16T22:27:22.168Z,66459.16
2022-12-16T22:30:08.275Z,66458.59
2022-12-16T22:32:54.797Z,66452.91
2022-12-16T22:35:42.082Z,66460.47
2022-12-16T22:36:22.085Z,66449.53
2022-12-16T22:38:28.021Z,66468.09
2022-12-16T22:41:17.705Z,66465.88
2022-12-16T22:44:04.750Z,66465.53
2022-12-16T22:46:50.722Z,66464.41
2022-12-16T22:49:38.807Z,66470.66
2022-12-16T22:52:24.842Z,66469.22
2022-12-16T22:55:10.355Z,66462.72
2022-12-16T22:57:56.209Z,66465.53
2022-12-16T23:00:42.440Z,66465.88
2022-12-16T23:03:35.163Z,66461.59
2022-12-16T23:06:21.390Z,66465.28
2022-12-16T23:09:07.328Z,66461.59
2022-12-16T23:11:56.816Z,66463.63
2022-12-16T23:14:59.738Z,66466.97
2022-12-16T23:17:45.645Z,66469.97
2022-12-16T23:20:31.190Z,66468.09
2022-12-16T23:23:16.683Z,66464.41
2022-12-16T23:26:14.514Z,66466.66
2022-12-16T23:29:00.461Z,66467.53
2022-12-16T23:31:46.476Z,66471.78
2022-12-16T23:34:32.360Z,66466.41
2022-12-16T23:37:18.276Z,66466.06
2022-12-16T23:40:04.025Z,66464.06
2022-12-16T23:42:49.598Z,66466.66
2022-12-16T23:45:35.856Z,66472.00
2022-12-16T23:48:41.671Z,66473.44
2022-12-16T23:51:27.147Z,66473.88
2022-12-16T23:54:12.974Z,66471.09
2022-12-16T23:56:58.780Z,66481.50
2022-12-16T23:59:44.622Z,66479.25
